KDYB

Summerville Airport

Summerville, South Carolina, USA
METAR KDYB 212315Z AUTO 18007KT 10SM CLR 29/24 A3000 RMK AO1
Observed Flight Rules
Aug-21 @ 23:15 UTC (30 minutes ago) Visual Flight Rules
Wind Visibility Clouds
180° at 7 knots 10 miles
  • Clear skies
Temperatures Readings
Current 29°C / 84°F
Dewpoint 24°C / 75°F
Humidity 74%
Altimeter 30" Hg
Pressure 1016 hPa
Elevation 18
METAR KDYB 212315Z AUTO 18007KT 10SM CLR 29/24 A3000 RMK AO1
Observed Flight Rules
Aug-21 @ 23:15 UTC
(30 minutes ago)
VFR
Wind Visibility
180° at 7 knots 10 miles
Clouds
  • Clear skies
Temperature Dewpoint
29°C / 84°F 24°C / 75°F
Humidity Altimeter Pressure
74% 30" Hg 1016 hPa